Hlavní strana
METAR-TAF:

METAR-TAF

Letiště :

Pula, Chorvatsko

zeměpisná šířka: 44-54N, zeměpisná délka: 013-55E, výška: 63 m

Aktuální stav počasí

Zpráva byla vytvořena před 25 minutami, v 15:00 UTC
Východoseverovýchodní vítr 21 kt
Teplota 9°C
Vlhkost vzduchu 53%
Tlak 1021 hPa
Viditelnost 10 km a více
Skoro jasno ve výšce 3800 ft
Polojasno ve výšce 4800 ft

METAR: LDPL 191500Z 07021KT 9999 FEW038 SCT048 09/M00 Q1021 NOSIG

Čas: 16:25 (15:25 UTC)

Předpověď počasí

Zpráva byla vytvořena před 4 hodinami a 0 minutami, v 11:25 UTC
Předpověď platná od 19 v 12 UTC do 20 v 12 UTC
Východoseverovýchodní vítr 18 kt
Viditelnost 10 km a více
Polojasno ve výšce 5000 ft
Dočasný
od 19 v 12 UTC do 20 v 12 UTC
Východoseverovýchodní vítr 22 kt s nárazy do 32 kt

TAF: LDPL 191125Z 1912/2012 06018KT 9999 SCT050 TX09/1912Z TN06/2004Z TEMPO 1912/2012 06022G32KT

Stav a předpovědi počasí z více než 4 000 letišť (zprávy METAR a TAF).

Červené a žluté tečky na mapě představují dostupné meteorologické stanice.

Když kurzor umístíte na tečku, zobrazí se název stanice.

Pak kliknutím zobrazíte stav a předpověď počasí.

Chcete-li změnit mapu, kliknutím na zelené tlačítko se znaménkem +mapu přiblížíte, kliknutím na zelené tlačítko se znaménkem – mapu oddálíte a kliknutím na zelené šipky přejdete na sousední mapy.


METAR-TAF: